Portada
METAR-TAF:

METAR-TAF

Aeroports :

Buochs, Suïssa

latitud: 46-58-28N, longitud: 8-23-49E, altitud: 449 m

Observació

L'informe es va fer fa 39 minuts, a les 14:50 UTC
Vent 4 kt del Sud, variant entre Est/Sud-Est i Oest
Temperatura 3°C
Humitat 65%
Pressió 1026 hPa
Visibilitat: 8000 m
Escasses núvols a una alçada de 4500 ft
xàfecs de pluja, neu

METAR: LSZC 101450Z 18004KT 120V280 8000 -SHRASN FEW045 03/M03 Q1026

Hora: 16:29 (15:29 UTC)

Pronòstic

L'informe es va fer fa 1 hora i 4 minuts, a les 14:25 UTC
Pronòstic vàlid del 10 a les 15 UTC al 10 a les 24 UTC
Vent 3 kt amb direcció variable
Visibilitat 10 km o més
sense núvols per sota de 1500 mi sense presència de cumulonimbus.
Probabilitat 40%
l' 10 a les 22 UTC al 10 a les 23 UTC
Visibilitat: 4000 m
Boira superficial

TAF: LSZC 101425Z 1015/1024 VRB03KT CAVOK PROB40 1022/1023 4000 MIFG NSC

Observacions i pronòstics meteorològics de més de 4000 aeroports (METAR i TAF).

Les estacions disponibles són els punts grocs i vermells al mapa.

Posi el ratolí al punt desitjat per veure el nom de l'estació.

Feu clic per veure les observacions i els pronòstics meteorològics.

Per canviar el mapa: feu clic els botons verds amb una creu de color negre per apropar; al botó verd amb un guió per allunyar la imatge; o en les fletxes verdes per a mapes adjacents.


METAR-TAF: